createdAt,value
2022-12-22T00:03:44.550Z,1012.19
2022-12-22T00:08:45.809Z,1012.11
2022-12-22T00:13:46.965Z,1012.07
2022-12-22T00:18:48.135Z,1011.96
2022-12-22T00:23:49.272Z,1011.95
2022-12-22T00:28:50.435Z,1011.99
2022-12-22T00:33:51.578Z,1012.01
2022-12-22T00:38:52.764Z,1012.06
2022-12-22T00:43:54.023Z,1012.09
2022-12-22T00:48:56.248Z,1012.06
2022-12-22T00:53:55.435Z,1012.05
2022-12-22T00:58:56.606Z,1012.04
2022-12-22T01:03:57.786Z,1012.03
2022-12-22T01:08:58.990Z,1011.83
2022-12-22T01:14:00.158Z,1011.85
2022-12-22T01:19:03.292Z,1011.96
2022-12-22T01:24:02.437Z,1011.96
2022-12-22T01:29:04.591Z,1012.01
2022-12-22T01:34:03.728Z,1012.02
2022-12-22T01:39:04.943Z,1012.04
2022-12-22T01:44:06.112Z,1012.09
2022-12-22T01:49:07.301Z,1012.13
2022-12-22T01:54:08.502Z,1012.24
2022-12-22T01:59:09.712Z,1012.10
2022-12-22T02:04:11.013Z,1012.03
2022-12-22T02:09:12.164Z,1012.03
2022-12-22T02:14:13.448Z,1012.08
2022-12-22T02:19:14.663Z,1011.97
2022-12-22T02:24:15.798Z,1012.08
2022-12-22T02:29:16.965Z,1012.04
2022-12-22T02:34:18.117Z,1012.12
2022-12-22T02:39:19.255Z,1012.00
2022-12-22T02:44:20.408Z,1011.82
2022-12-22T02:49:21.510Z,1011.84
2022-12-22T02:54:22.652Z,1011.90
2022-12-22T02:59:23.849Z,1011.91
2022-12-22T03:04:23.974Z,1011.94
2022-12-22T03:09:25.408Z,1011.93
2022-12-22T03:14:26.583Z,1011.95
2022-12-22T03:19:27.769Z,1011.81
2022-12-22T03:24:28.947Z,1011.79
2022-12-22T03:29:30.095Z,1011.72
2022-12-22T03:34:31.247Z,1011.59
2022-12-22T03:39:32.447Z,1011.47
2022-12-22T03:44:33.567Z,1011.27
2022-12-22T03:49:34.740Z,1011.42
2022-12-22T03:54:35.876Z,1011.26
2022-12-22T03:59:35.993Z,1011.00
2022-12-22T04:04:37.117Z,1011.12
2022-12-22T04:09:38.297Z,1011.33
2022-12-22T04:14:39.551Z,1011.45
2022-12-22T04:19:40.685Z,1011.51
2022-12-22T04:24:41.814Z,1011.70
2022-12-22T04:29:42.971Z,1011.34
2022-12-22T04:34:44.096Z,1011.16
2022-12-22T04:39:45.215Z,1011.41
2022-12-22T04:44:45.367Z,1011.42
2022-12-22T04:49:46.509Z,1011.17
2022-12-22T04:54:47.641Z,1011.21
2022-12-22T04:59:48.810Z,1011.14
2022-12-22T05:04:49.922Z,1011.16
2022-12-22T05:09:51.083Z,1011.01
2022-12-22T05:14:53.269Z,1011.09
2022-12-22T05:19:52.394Z,1010.89
2022-12-22T05:24:53.561Z,1010.99
2022-12-22T05:29:54.690Z,1010.97
2022-12-22T05:34:55.837Z,1011.06
2022-12-22T05:39:56.999Z,1010.99
2022-12-22T05:44:58.189Z,1011.19
2022-12-22T05:49:59.391Z,1011.16
2022-12-22T05:55:00.588Z,1011.07
2022-12-22T06:00:01.766Z,1010.90
2022-12-22T06:05:02.946Z,1011.09
2022-12-22T06:10:09.766Z,1011.10
2022-12-22T06:15:04.054Z,1011.27
2022-12-22T06:20:06.233Z,1011.48
2022-12-22T06:25:05.427Z,1011.44
2022-12-22T06:30:06.588Z,1011.53
2022-12-22T06:35:07.712Z,1011.76
2022-12-22T06:40:08.856Z,1011.74
2022-12-22T06:45:10.035Z,1011.62
2022-12-22T06:50:11.230Z,1011.66
2022-12-22T06:55:12.356Z,1011.35
2022-12-22T07:00:13.498Z,1011.41
2022-12-22T07:05:15.704Z,1011.36
2022-12-22T07:10:14.885Z,1011.45
2022-12-22T07:15:16.039Z,1011.15
2022-12-22T07:20:17.181Z,1011.31
2022-12-22T07:25:18.322Z,1011.32
2022-12-22T07:30:19.432Z,1011.49
2022-12-22T07:35:20.622Z,1011.44
2022-12-22T07:40:22.112Z,1011.38
2022-12-22T07:45:21.306Z,1011.30
2022-12-22T07:50:22.784Z,1011.15
2022-12-22T07:55:21.908Z,1010.96
2022-12-22T08:00:23.067Z,1011.00
2022-12-22T08:05:24.196Z,1010.91
2022-12-22T08:10:25.375Z,1011.32
2022-12-22T08:15:27.515Z,1011.01
2022-12-22T08:20:26.801Z,1011.40
2022-12-22T08:25:27.158Z,1011.25
2022-12-22T08:30:28.297Z,1011.39
2022-12-22T08:35:29.397Z,1011.32
2022-12-22T08:40:31.586Z,1011.11
2022-12-22T08:45:31.656Z,1010.84
2022-12-22T08:50:31.755Z,1011.04
2022-12-22T08:55:31.955Z,1011.25
2022-12-22T09:00:31.082Z,1011.15
2022-12-22T09:05:32.239Z,1011.11
2022-12-22T09:10:33.349Z,1011.52
2022-12-22T09:15:34.515Z,1011.78
2022-12-22T09:20:36.659Z,1011.53
2022-12-22T09:25:35.868Z,1011.56
2022-12-22T09:30:37.099Z,1011.81
2022-12-22T09:35:38.213Z,1011.52
2022-12-22T09:40:40.386Z,1011.67
2022-12-22T09:45:39.725Z,1011.62
2022-12-22T09:50:42.806Z,1011.64
2022-12-22T09:55:42.947Z,1011.70
2022-12-22T10:00:42.077Z,1011.78
2022-12-22T10:05:45.219Z,1011.78
2022-12-22T10:10:44.384Z,1011.80
2022-12-22T10:15:46.509Z,1011.72
2022-12-22T10:20:45.679Z,1011.84
2022-12-22T10:26:27.069Z,1011.82
2022-12-22T10:30:46.760Z,1011.50
2022-12-22T10:35:47.867Z,1011.38
2022-12-22T10:40:49.970Z,1011.70
2022-12-22T10:45:50.115Z,1011.53
2022-12-22T10:50:49.320Z,1011.67
2022-12-22T10:55:51.401Z,1011.53
2022-12-22T11:00:50.511Z,1011.62
2022-12-22T11:05:51.637Z,1011.61
2022-12-22T11:10:52.720Z,1011.57
2022-12-22T11:15:52.823Z,1011.56
2022-12-22T11:20:54.903Z,1011.41
2022-12-22T11:25:55.018Z,1011.42
2022-12-22T11:30:54.481Z,1011.47
2022-12-22T11:35:55.626Z,1011.34
2022-12-22T11:40:56.780Z,1011.26
2022-12-22T11:45:58.028Z,1011.45
2022-12-22T11:51:11.409Z,1011.12
2022-12-22T11:55:59.152Z,1011.31
2022-12-22T12:01:22.416Z,1011.14
2022-12-22T12:06:00.239Z,1011.40
2022-12-22T12:11:01.333Z,1011.14
2022-12-22T12:16:02.525Z,1011.41
2022-12-22T12:21:04.614Z,1011.28
2022-12-22T12:26:03.794Z,1011.25
2022-12-22T12:31:03.929Z,1011.03
2022-12-22T12:36:04.078Z,1011.10
2022-12-22T12:41:05.174Z,1011.09
2022-12-22T12:46:07.341Z,1011.01
2022-12-22T12:51:08.456Z,1010.88
2022-12-22T12:56:08.619Z,1010.93
2022-12-22T13:01:07.776Z,1010.94
2022-12-22T13:06:09.277Z,1011.12
2022-12-22T13:11:10.426Z,1011.22
2022-12-22T13:16:12.561Z,1011.15
2022-12-22T13:21:50.849Z,1011.26
2022-12-22T13:26:11.810Z,1011.06
2022-12-22T13:31:13.069Z,1011.24
2022-12-22T13:36:14.572Z,1010.99
2022-12-22T13:41:13.727Z,1011.07
2022-12-22T13:46:15.952Z,1011.37
2022-12-22T13:51:15.075Z,1011.21
2022-12-22T13:56:16.185Z,1011.20
2022-12-22T14:01:17.469Z,1011.27
2022-12-22T14:06:18.621Z,1011.35
2022-12-22T14:11:19.727Z,1011.15
2022-12-22T14:16:20.930Z,1011.64
2022-12-22T14:21:22.075Z,1011.44
2022-12-22T14:26:23.193Z,1011.82
2022-12-22T14:31:26.344Z,1011.63
2022-12-22T14:36:27.661Z,1011.58
2022-12-22T14:41:26.783Z,1011.74
2022-12-22T14:46:31.114Z,1011.87
2022-12-22T14:51:29.866Z,1011.71
2022-12-22T14:56:29.961Z,1011.69
2022-12-22T15:01:30.099Z,1011.76
2022-12-22T15:06:29.324Z,1011.73
2022-12-22T15:11:30.453Z,1011.63
2022-12-22T15:16:32.602Z,1011.86
2022-12-22T15:21:31.703Z,1011.70
2022-12-22T15:26:37.630Z,1011.55
2022-12-22T15:31:32.911Z,1011.61
2022-12-22T15:36:35.097Z,1011.53
2022-12-22T15:41:35.251Z,1011.42
2022-12-22T15:46:36.612Z,1011.56
2022-12-22T15:51:35.780Z,1011.63
2022-12-22T15:56:38.941Z,1011.43
2022-12-22T16:01:39.215Z,1011.42
2022-12-22T16:06:38.661Z,1011.44
2022-12-22T16:11:37.780Z,1011.29
2022-12-22T16:16:39.919Z,1011.27
2022-12-22T16:21:39.050Z,1011.23
2022-12-22T16:26:40.151Z,1011.30
2022-12-22T16:31:41.351Z,1011.09
2022-12-22T16:36:42.510Z,1011.20
2022-12-22T16:41:44.628Z,1011.05
2022-12-22T16:46:44.847Z,1010.99
2022-12-22T16:51:43.988Z,1011.11
2022-12-22T16:56:45.123Z,1011.04
2022-12-22T17:01:47.370Z,1011.11
2022-12-22T17:06:46.560Z,1011.03
2022-12-22T17:11:48.713Z,1010.91
2022-12-22T17:16:51.721Z,1010.88
2022-12-22T17:21:49.867Z,1011.00
2022-12-22T17:26:49.027Z,1010.95
2022-12-22T17:31:50.261Z,1010.96
2022-12-22T17:36:51.453Z,1011.08
2022-12-22T17:41:56.987Z,1011.03
2022-12-22T17:46:52.868Z,1011.03
2022-12-22T17:51:54.115Z,1011.09
2022-12-22T17:56:55.298Z,1010.99
2022-12-22T18:01:56.536Z,1010.89
2022-12-22T18:06:56.777Z,1010.80
2022-12-22T18:11:57.951Z,1010.91
2022-12-22T18:16:59.118Z,1010.76
2022-12-22T18:22:00.286Z,1010.72
2022-12-22T18:27:01.570Z,1010.76
2022-12-22T18:32:02.965Z,1010.85
2022-12-22T18:37:04.131Z,1010.86
2022-12-22T18:42:05.320Z,1010.75
2022-12-22T18:47:06.578Z,1010.68
2022-12-22T18:52:07.792Z,1010.58
2022-12-22T18:57:09.031Z,1010.57
2022-12-22T19:02:10.263Z,1010.49
2022-12-22T19:07:11.528Z,1010.47
2022-12-22T19:12:13.767Z,1010.45
2022-12-22T19:17:12.935Z,1010.45
2022-12-22T19:22:15.107Z,1010.52
2022-12-22T19:27:14.234Z,1010.46
2022-12-22T19:32:15.554Z,1010.32
2022-12-22T19:37:15.869Z,1010.22
2022-12-22T19:42:17.213Z,1010.17
2022-12-22T19:47:18.747Z,1010.06
2022-12-22T19:52:18.088Z,1009.98
2022-12-22T19:57:19.303Z,1009.99
2022-12-22T20:02:20.525Z,1009.86
2022-12-22T20:07:22.807Z,1009.78
2022-12-22T20:12:21.934Z,1009.74
2022-12-22T20:17:24.241Z,1009.63
2022-12-22T20:22:23.441Z,1009.51
2022-12-22T20:27:24.743Z,1009.50
2022-12-22T20:32:28.271Z,1009.47
2022-12-22T20:37:25.691Z,1009.34
2022-12-22T20:42:26.908Z,1009.27
2022-12-22T20:47:28.038Z,1009.30
2022-12-22T20:52:29.211Z,1009.29
2022-12-22T20:57:30.439Z,1009.13
2022-12-22T21:02:32.071Z,1009.04
2022-12-22T21:07:32.445Z,1009.06
2022-12-22T21:12:32.607Z,1009.06
2022-12-22T21:17:31.760Z,1008.99
2022-12-22T21:22:32.884Z,1008.89
2022-12-22T21:27:35.039Z,1008.78
2022-12-22T21:32:34.204Z,1008.65
2022-12-22T21:37:35.465Z,1008.68
2022-12-22T21:42:36.632Z,1008.58
2022-12-22T21:47:38.752Z,1008.59
2022-12-22T21:52:37.931Z,1008.52
2022-12-22T21:57:39.017Z,1008.57
2022-12-22T22:02:42.229Z,1008.70
2022-12-22T22:07:41.487Z,1008.74
2022-12-22T22:12:42.620Z,1008.83
2022-12-22T22:17:43.780Z,1008.77
2022-12-22T22:22:44.928Z,1008.89
2022-12-22T22:27:48.173Z,1008.58
2022-12-22T22:32:46.497Z,1008.48
2022-12-22T22:37:47.656Z,1008.50
2022-12-22T22:42:48.846Z,1008.35
2022-12-22T22:47:51.040Z,1008.32
2022-12-22T22:52:50.182Z,1008.26
2022-12-22T22:57:51.309Z,1008.18
2022-12-22T23:02:52.792Z,1008.25
2022-12-22T23:07:53.032Z,1008.13
2022-12-22T23:12:54.155Z,1008.29
2022-12-22T23:17:55.351Z,1008.35
2022-12-22T23:22:57.617Z,1008.08
2022-12-22T23:27:56.819Z,1008.25
2022-12-22T23:32:57.937Z,1008.14
2022-12-22T23:37:59.238Z,1008.21
2022-12-22T23:43:00.391Z,1008.43
2022-12-22T23:48:01.510Z,1008.22
2022-12-22T23:53:01.714Z,1008.29
2022-12-22T23:58:02.938Z,1008.11
